createdAt,value
2022-10-06T00:01:49.509Z,1.20
2022-10-06T00:04:19.015Z,0.90
2022-10-06T00:06:49.089Z,1.20
2022-10-06T00:09:18.828Z,0.90
2022-10-06T00:11:48.560Z,1.37
2022-10-06T00:14:18.005Z,1.23
2022-10-06T00:16:47.744Z,1.43
2022-10-06T00:19:17.483Z,1.73
2022-10-06T00:21:47.346Z,1.83
2022-10-06T00:24:16.867Z,1.00
2022-10-06T00:26:47.263Z,1.33
2022-10-06T00:29:17.010Z,1.90
2022-10-06T00:31:47.138Z,1.75
2022-10-06T00:34:16.898Z,1.32
2022-10-06T00:36:47.090Z,1.33
2022-10-06T00:39:16.816Z,1.47
2022-10-06T00:41:46.859Z,1.30
2022-10-06T00:44:16.630Z,1.66
2022-10-06T00:46:54.577Z,1.47
2022-10-06T00:49:36.155Z,1.25
2022-10-06T00:52:10.846Z,2.17
2022-10-06T00:54:41.939Z,1.75
2022-10-06T00:57:13.024Z,1.50
2022-10-06T00:59:43.075Z,1.20
2022-10-06T01:02:18.402Z,1.55
2022-10-06T01:04:52.995Z,1.67
2022-10-06T01:07:25.307Z,1.77
2022-10-06T01:09:57.146Z,1.43
2022-10-06T01:12:29.671Z,1.02
2022-10-06T01:14:59.476Z,1.57
2022-10-06T01:17:44.765Z,1.45
2022-10-06T01:20:19.429Z,1.55
2022-10-06T01:23:05.213Z,1.13
2022-10-06T01:25:35.775Z,1.20
2022-10-06T01:28:10.667Z,1.75
2022-10-06T01:30:51.029Z,2.67
2022-10-06T01:33:23.126Z,1.60
2022-10-06T01:35:54.449Z,1.45
2022-10-06T01:38:26.109Z,1.62
2022-10-06T01:40:57.738Z,1.20
2022-10-06T01:43:27.562Z,1.63
2022-10-06T01:45:59.195Z,1.98
2022-10-06T01:48:29.511Z,1.53
2022-10-06T01:51:00.651Z,1.57
2022-10-06T01:53:30.106Z,1.32
2022-10-06T01:56:02.823Z,1.77
2022-10-06T01:58:33.087Z,1.50
2022-10-06T02:01:07.497Z,1.50
2022-10-06T02:03:39.438Z,1.30
2022-10-06T02:06:12.272Z,1.80
2022-10-06T02:08:43.701Z,1.70
2022-10-06T02:11:13.966Z,1.40
2022-10-06T02:13:44.441Z,1.75
2022-10-06T02:16:14.463Z,1.67
2022-10-06T02:18:45.227Z,1.60
2022-10-06T02:21:19.720Z,1.43
2022-10-06T02:23:49.713Z,1.80
2022-10-06T02:26:19.963Z,1.27
2022-10-06T02:28:53.072Z,1.97
2022-10-06T02:31:24.636Z,1.50
2022-10-06T02:33:54.787Z,1.70
2022-10-06T02:36:24.568Z,1.57
2022-10-06T02:38:54.763Z,1.45
2022-10-06T02:41:25.624Z,1.63
2022-10-06T02:43:55.891Z,2.10
2022-10-06T02:46:25.900Z,1.65
2022-10-06T02:48:56.045Z,1.17
2022-10-06T02:51:26.157Z,1.50
2022-10-06T02:53:56.171Z,1.57
2022-10-06T02:56:27.081Z,1.50
2022-10-06T02:58:56.847Z,1.60
2022-10-06T03:01:29.599Z,1.60
2022-10-06T03:04:03.671Z,1.97
2022-10-06T03:06:33.557Z,1.47
2022-10-06T03:09:10.053Z,1.57
2022-10-06T03:11:45.508Z,2.03
2022-10-06T03:14:21.595Z,2.43
2022-10-06T03:16:48.146Z,2.07
2022-10-06T03:19:19.900Z,2.02
2022-10-06T03:21:50.061Z,1.30
2022-10-06T03:24:19.638Z,1.83
2022-10-06T03:26:51.103Z,1.90
2022-10-06T03:29:20.997Z,1.63
2022-10-06T03:31:52.765Z,2.02
2022-10-06T03:34:22.586Z,1.98
2022-10-06T03:36:52.015Z,1.40
2022-10-06T03:39:23.438Z,1.57
2022-10-06T03:41:53.245Z,1.70
2022-10-06T03:44:23.267Z,1.63
2022-10-06T03:46:53.766Z,1.70
2022-10-06T03:49:23.643Z,1.73
2022-10-06T03:51:55.404Z,2.10
2022-10-06T03:54:27.061Z,1.82
2022-10-06T03:56:57.521Z,1.57
2022-10-06T03:59:28.967Z,1.50
2022-10-06T04:02:00.198Z,1.97
2022-10-06T04:04:31.406Z,1.87
2022-10-06T04:07:02.936Z,2.17
2022-10-06T04:09:33.143Z,2.07
2022-10-06T04:12:03.421Z,2.43
2022-10-06T04:14:34.881Z,1.93
2022-10-06T04:17:05.285Z,2.20
2022-10-06T04:19:36.744Z,1.63
2022-10-06T04:22:08.834Z,1.20
2022-10-06T04:24:38.787Z,1.97
2022-10-06T04:27:25.995Z,2.40
2022-10-06T04:29:58.440Z,1.90
2022-10-06T04:32:29.352Z,2.00
2022-10-06T04:34:58.962Z,1.70
2022-10-06T04:37:29.255Z,1.67
2022-10-06T04:39:59.774Z,2.43
2022-10-06T04:45:04.769Z,1.80
2022-10-06T04:47:35.200Z,2.53
2022-10-06T04:50:07.609Z,1.90
2022-10-06T04:52:37.864Z,1.73
2022-10-06T04:55:08.457Z,1.90
2022-10-06T04:57:38.263Z,1.87
2022-10-06T05:00:23.003Z,2.00
2022-10-06T05:02:56.455Z,1.83
2022-10-06T05:05:26.375Z,2.07
2022-10-06T05:07:57.125Z,2.65
2022-10-06T05:10:28.393Z,2.03
2022-10-06T05:12:59.222Z,2.03
2022-10-06T05:15:29.104Z,2.37
2022-10-06T05:17:59.523Z,2.20
2022-10-06T05:20:29.131Z,2.03
2022-10-06T05:22:59.364Z,2.15
2022-10-06T05:25:29.187Z,1.93
2022-10-06T05:27:59.038Z,3.70
2022-10-06T05:30:28.922Z,1.45
2022-10-06T05:32:58.842Z,4.80
2022-10-06T05:35:28.945Z,1.90
2022-10-06T05:37:59.058Z,2.37
2022-10-06T05:40:28.957Z,2.10
2022-10-06T05:42:58.945Z,1.90
2022-10-06T05:45:28.984Z,2.63
2022-10-06T05:47:59.026Z,2.20
2022-10-06T05:50:28.655Z,2.40
2022-10-06T05:52:59.053Z,2.60
2022-10-06T05:55:29.056Z,2.17
2022-10-06T05:57:58.815Z,2.20
2022-10-06T06:00:28.627Z,1.87
2022-10-06T06:02:58.567Z,3.27
2022-10-06T06:05:28.466Z,2.43
2022-10-06T06:07:58.199Z,2.27
2022-10-06T06:10:28.076Z,2.25
2022-10-06T06:12:58.051Z,2.27
2022-10-06T06:15:47.006Z,2.37
2022-10-06T06:20:45.536Z,2.55
2022-10-06T06:23:15.285Z,3.03
2022-10-06T06:25:45.032Z,2.80
2022-10-06T06:28:14.965Z,2.63
2022-10-06T06:30:45.497Z,2.30
2022-10-06T06:33:15.384Z,3.17
2022-10-06T06:35:45.300Z,2.80
2022-10-06T06:38:15.113Z,2.67
2022-10-06T06:40:44.645Z,2.90
2022-10-06T06:43:15.866Z,3.50
2022-10-06T06:46:04.985Z,3.67
2022-10-06T06:48:53.947Z,3.62
2022-10-06T06:51:24.640Z,2.75
2022-10-06T06:53:55.180Z,3.15
2022-10-06T06:56:24.824Z,2.47
2022-10-06T06:58:55.004Z,2.62
2022-10-06T07:01:25.331Z,3.75
2022-10-06T07:03:59.313Z,2.67
2022-10-06T07:06:31.871Z,2.77
2022-10-06T07:09:03.619Z,3.50
2022-10-06T07:11:36.088Z,3.27
2022-10-06T07:14:12.654Z,2.60
2022-10-06T07:17:02.787Z,3.20
2022-10-06T07:19:50.233Z,2.97
2022-10-06T07:22:41.606Z,3.77
2022-10-06T07:25:26.310Z,2.90
2022-10-06T07:28:00.364Z,2.67
2022-10-06T07:30:34.147Z,3.27
2022-10-06T07:33:05.810Z,2.53
2022-10-06T07:35:35.833Z,2.57
2022-10-06T07:38:07.340Z,2.80
2022-10-06T07:40:46.229Z,2.90
2022-10-06T07:43:11.871Z,2.73
2022-10-06T07:45:46.967Z,2.50
2022-10-06T07:48:37.983Z,2.43
2022-10-06T07:51:16.413Z,2.40
2022-10-06T07:53:48.159Z,2.80
2022-10-06T07:56:21.233Z,2.30
2022-10-06T07:58:52.406Z,2.10
2022-10-06T08:01:22.263Z,2.57
2022-10-06T08:03:52.022Z,2.40
2022-10-06T08:08:53.135Z,3.08
2022-10-06T08:11:23.183Z,2.22
2022-10-06T08:13:53.141Z,2.43
2022-10-06T08:16:27.248Z,2.20
2022-10-06T08:18:58.210Z,2.55
2022-10-06T08:21:31.211Z,1.95
2022-10-06T08:24:02.041Z,2.20
2022-10-06T08:26:33.200Z,2.12
2022-10-06T08:29:03.747Z,2.10
2022-10-06T08:31:33.912Z,1.93
2022-10-06T08:34:06.656Z,2.40
2022-10-06T08:36:35.783Z,1.67
2022-10-06T08:39:07.105Z,2.00
2022-10-06T08:41:50.089Z,2.30
2022-10-06T08:44:30.226Z,1.90
2022-10-06T08:47:03.718Z,2.85
2022-10-06T08:49:39.570Z,2.02
2022-10-06T08:52:21.224Z,1.87
2022-10-06T08:55:06.089Z,2.10
2022-10-06T08:57:56.902Z,2.20
2022-10-06T09:00:28.397Z,1.53
2022-10-06T09:02:58.133Z,1.67
2022-10-06T09:05:30.599Z,2.27
2022-10-06T09:08:25.948Z,2.17
2022-10-06T09:11:22.938Z,2.08
2022-10-06T09:13:56.463Z,2.00
2022-10-06T09:16:31.739Z,1.83
2022-10-06T09:19:08.708Z,1.57
2022-10-06T09:21:39.366Z,2.03
2022-10-06T09:24:19.542Z,1.80
2022-10-06T09:26:52.040Z,1.70
2022-10-06T09:29:21.837Z,1.70
2022-10-06T09:31:51.679Z,1.50
2022-10-06T09:34:49.997Z,2.27
2022-10-06T09:37:20.307Z,1.33
2022-10-06T09:39:52.101Z,1.57
2022-10-06T09:42:25.032Z,1.73
2022-10-06T09:45:04.896Z,1.50
2022-10-06T09:47:39.198Z,1.40
2022-10-06T09:50:23.504Z,1.90
2022-10-06T09:53:03.543Z,1.90
2022-10-06T09:55:38.886Z,1.53
2022-10-06T09:58:33.655Z,1.90
2022-10-06T10:01:12.086Z,1.60
2022-10-06T10:04:15.547Z,1.85
2022-10-06T10:06:27.473Z,1.30
2022-10-06T10:09:22.416Z,2.42
2022-10-06T10:12:25.024Z,2.07
2022-10-06T10:15:12.689Z,1.40
2022-10-06T10:17:50.871Z,1.20
2022-10-06T10:20:38.098Z,1.97
2022-10-06T10:23:30.928Z,1.13
2022-10-06T10:29:09.006Z,1.80
2022-10-06T10:32:04.063Z,2.00
2022-10-06T10:34:54.690Z,1.67
2022-10-06T10:37:33.168Z,1.30
2022-10-06T10:40:14.958Z,1.33
2022-10-06T10:42:50.493Z,1.17
2022-10-06T10:45:26.370Z,1.83
2022-10-06T10:47:58.363Z,1.37
2022-10-06T10:50:36.793Z,1.40
2022-10-06T10:53:09.652Z,1.40
2022-10-06T10:55:42.523Z,1.60
2022-10-06T10:58:24.988Z,1.50
2022-10-06T11:00:57.863Z,1.00
2022-10-06T11:03:27.700Z,2.17
2022-10-06T11:06:08.520Z,1.37
2022-10-06T11:08:58.321Z,1.60
2022-10-06T11:11:54.130Z,1.40
2022-10-06T11:14:30.254Z,1.42
2022-10-06T11:17:25.394Z,1.20
2022-10-06T11:20:22.206Z,1.35
2022-10-06T11:23:12.917Z,1.22
2022-10-06T11:25:51.291Z,1.67
2022-10-06T11:28:33.379Z,1.80
2022-10-06T11:31:20.189Z,1.22
2022-10-06T11:33:55.617Z,1.25
2022-10-06T11:36:58.181Z,1.73
2022-10-06T11:39:46.228Z,1.47
2022-10-06T11:42:25.796Z,1.60
2022-10-06T11:45:05.027Z,1.40
2022-10-06T11:47:41.547Z,1.50
2022-10-06T11:50:33.551Z,1.63
2022-10-06T11:53:03.805Z,1.70
2022-10-06T11:55:33.756Z,1.40
2022-10-06T12:00:46.958Z,1.50
2022-10-06T12:03:34.894Z,1.40
2022-10-06T12:06:04.657Z,1.57
2022-10-06T12:08:41.994Z,1.67
2022-10-06T12:11:40.180Z,1.70
2022-10-06T12:15:31.952Z,1.20
2022-10-06T12:19:30.193Z,1.20
2022-10-06T12:22:23.725Z,1.23
2022-10-06T12:25:08.108Z,1.00
2022-10-06T12:27:58.815Z,1.17
2022-10-06T12:31:04.391Z,1.20
2022-10-06T12:33:41.888Z,1.00
2022-10-06T12:36:32.643Z,1.80
2022-10-06T12:39:05.539Z,1.50
2022-10-06T12:42:03.098Z,1.33
2022-10-06T12:44:48.636Z,2.13
2022-10-06T12:47:36.084Z,0.97
2022-10-06T12:53:03.249Z,1.23
2022-10-06T12:55:56.800Z,0.95
2022-10-06T12:58:32.561Z,1.20
2022-10-06T13:01:13.651Z,1.25
2022-10-06T13:03:46.488Z,1.50
2022-10-06T13:06:19.768Z,1.40
2022-10-06T13:09:05.016Z,1.17
2022-10-06T13:11:34.662Z,1.40
2022-10-06T13:14:13.455Z,1.20
2022-10-06T13:16:46.091Z,1.50
2022-10-06T13:19:18.910Z,1.30
2022-10-06T13:21:48.793Z,0.90
2022-10-06T13:24:24.048Z,1.03
2022-10-06T13:26:53.935Z,0.77
2022-10-06T13:29:26.386Z,0.93
2022-10-06T13:31:56.699Z,1.17
2022-10-06T13:34:39.508Z,1.10
2022-10-06T13:39:41.557Z,1.17
2022-10-06T13:42:16.389Z,1.02
2022-10-06T13:44:49.421Z,1.33
2022-10-06T13:47:20.652Z,0.80
2022-10-06T13:49:57.310Z,0.97
2022-10-06T13:52:38.732Z,0.97
2022-10-06T13:55:23.987Z,1.17
2022-10-06T13:58:04.872Z,1.00
2022-10-06T14:00:54.960Z,0.85
2022-10-06T14:03:36.992Z,1.00
2022-10-06T14:06:09.821Z,1.00
2022-10-06T14:08:40.178Z,0.75
2022-10-06T14:11:11.240Z,1.33
2022-10-06T14:13:58.980Z,0.70
2022-10-06T14:16:30.174Z,1.37
2022-10-06T14:19:02.782Z,1.60
2022-10-06T14:21:41.788Z,1.20
2022-10-06T14:24:20.606Z,1.10
2022-10-06T14:26:51.096Z,1.10
2022-10-06T14:29:21.272Z,1.00
2022-10-06T14:31:51.366Z,0.78
2022-10-06T14:34:22.707Z,0.70
2022-10-06T14:36:54.550Z,0.93
2022-10-06T14:39:24.287Z,1.30
2022-10-06T14:41:54.061Z,1.00
2022-10-06T14:44:23.795Z,1.27
2022-10-06T14:46:54.107Z,0.90
2022-10-06T14:49:25.301Z,1.00
2022-10-06T14:51:56.404Z,1.17
2022-10-06T14:54:26.139Z,1.10
2022-10-06T14:56:55.930Z,1.07
2022-10-06T14:59:26.444Z,0.70
2022-10-06T15:01:56.166Z,1.10
2022-10-06T15:04:27.671Z,1.00
2022-10-06T15:07:15.014Z,1.10
2022-10-06T15:09:45.057Z,1.27
2022-10-06T15:12:14.785Z,1.40
2022-10-06T15:14:44.545Z,0.77
2022-10-06T15:17:14.267Z,1.03
2022-10-06T15:19:44.067Z,0.80
2022-10-06T15:22:14.161Z,0.90
2022-10-06T15:24:45.923Z,1.27
2022-10-06T15:27:33.268Z,1.27
2022-10-06T15:30:03.053Z,0.70
2022-10-06T15:32:32.972Z,1.10
2022-10-06T15:35:02.995Z,1.00
2022-10-06T15:37:32.470Z,1.40
2022-10-06T15:40:04.147Z,0.57
2022-10-06T15:42:34.205Z,1.20
2022-10-06T15:45:07.509Z,0.87
2022-10-06T15:47:35.893Z,0.93
2022-10-06T15:50:07.358Z,0.80
2022-10-06T15:52:37.091Z,0.80
2022-10-06T15:55:10.437Z,0.97
2022-10-06T15:57:40.220Z,0.80
2022-10-06T16:00:10.643Z,0.80
2022-10-06T16:02:43.400Z,0.67
2022-10-06T16:05:14.792Z,1.07
2022-10-06T16:07:44.614Z,0.90
2022-10-06T16:10:16.800Z,0.78
2022-10-06T16:12:47.960Z,0.87
2022-10-06T16:15:17.709Z,0.90
2022-10-06T16:17:47.728Z,1.07
2022-10-06T16:20:18.966Z,1.30
2022-10-06T16:22:48.747Z,0.70
2022-10-06T16:25:18.189Z,1.10
2022-10-06T16:27:47.953Z,1.10
2022-10-06T16:30:19.126Z,0.84
2022-10-06T16:32:48.884Z,1.60
2022-10-06T16:35:18.699Z,1.07
2022-10-06T16:37:49.818Z,1.43
2022-10-06T16:40:19.292Z,1.70
2022-10-06T16:42:48.757Z,1.30
2022-10-06T16:45:18.559Z,1.20
2022-10-06T16:47:48.251Z,1.43
2022-10-06T16:50:18.448Z,1.02
2022-10-06T16:52:48.251Z,1.73
2022-10-06T16:55:18.300Z,1.90
2022-10-06T16:57:47.732Z,1.50
2022-10-06T17:00:18.477Z,1.20
2022-10-06T17:02:48.192Z,1.47
2022-10-06T17:05:18.004Z,1.47
2022-10-06T17:07:47.747Z,1.90
2022-10-06T17:10:20.896Z,1.22
2022-10-06T17:12:49.671Z,1.93
2022-10-06T17:15:19.548Z,1.62
2022-10-06T17:17:49.596Z,1.52
2022-10-06T17:20:19.081Z,1.33
2022-10-06T17:22:50.171Z,1.30
2022-10-06T17:25:19.918Z,2.90
2022-10-06T17:27:49.658Z,2.33
2022-10-06T17:30:19.384Z,2.20
2022-10-06T17:32:49.152Z,2.10
2022-10-06T17:35:19.759Z,1.93
2022-10-06T17:37:50.173Z,2.07
2022-10-06T17:40:20.594Z,1.70
2022-10-06T17:42:50.315Z,1.87
2022-10-06T17:45:21.357Z,1.70
2022-10-06T17:47:51.698Z,2.13
2022-10-06T17:50:22.546Z,2.00
2022-10-06T17:52:52.296Z,2.47
2022-10-06T17:55:22.498Z,2.50
2022-10-06T17:57:52.404Z,2.10
2022-10-06T18:00:22.352Z,5.00
2022-10-06T18:02:55.313Z,5.97
2022-10-06T18:05:27.494Z,6.90
2022-10-06T18:07:58.478Z,6.23
2022-10-06T18:10:46.009Z,5.20
2022-10-06T18:13:15.866Z,4.70
2022-10-06T18:15:45.958Z,4.07
2022-10-06T18:18:15.770Z,4.00
2022-10-06T18:20:46.787Z,4.97
2022-10-06T18:23:16.947Z,4.13
2022-10-06T18:25:46.696Z,4.60
2022-10-06T18:28:16.182Z,4.07
2022-10-06T18:30:51.297Z,3.30
2022-10-06T18:36:15.006Z,4.00
2022-10-06T18:38:31.183Z,4.45
2022-10-06T18:41:03.669Z,3.60
2022-10-06T18:43:33.626Z,4.13
2022-10-06T18:46:23.445Z,3.80
2022-10-06T18:48:56.134Z,3.27
2022-10-06T18:51:36.908Z,3.00
2022-10-06T18:54:13.387Z,3.63
2022-10-06T18:56:46.313Z,3.37
2022-10-06T18:59:16.563Z,3.30
2022-10-06T19:01:49.037Z,3.17
2022-10-06T19:04:21.060Z,3.03
2022-10-06T19:06:54.090Z,3.20
2022-10-06T19:09:26.252Z,3.47
2022-10-06T19:11:58.210Z,3.43
2022-10-06T19:14:34.281Z,3.20
2022-10-06T19:17:10.607Z,2.80
2022-10-06T19:19:40.620Z,3.70
2022-10-06T19:22:14.171Z,3.78
2022-10-06T19:24:47.208Z,3.55
2022-10-06T19:27:20.707Z,3.87
2022-10-06T19:29:56.795Z,3.50
2022-10-06T19:32:31.340Z,3.17
2022-10-06T19:35:01.130Z,4.83
2022-10-06T19:37:31.930Z,3.73
2022-10-06T19:40:01.978Z,3.70
2022-10-06T19:42:50.836Z,4.00
2022-10-06T19:45:20.854Z,3.47
2022-10-06T19:47:51.357Z,3.70
2022-10-06T19:50:21.349Z,3.60
2022-10-06T19:52:51.599Z,3.20
2022-10-06T19:55:22.799Z,2.87
2022-10-06T19:57:52.884Z,3.35
2022-10-06T20:00:23.213Z,3.47
2022-10-06T20:02:52.949Z,2.90
2022-10-06T20:05:22.770Z,3.30
2022-10-06T20:07:52.583Z,2.73
2022-10-06T20:10:22.340Z,3.47
2022-10-06T20:12:52.124Z,3.27
2022-10-06T20:15:22.533Z,2.73
2022-10-06T20:17:52.286Z,3.30
2022-10-06T20:20:22.040Z,3.83
2022-10-06T20:22:53.868Z,3.55
2022-10-06T20:25:23.509Z,3.30
2022-10-06T20:27:53.277Z,3.47
2022-10-06T20:30:23.240Z,3.58
2022-10-06T20:32:53.461Z,2.80
2022-10-06T20:35:23.214Z,3.95
2022-10-06T20:37:53.039Z,4.10
2022-10-06T20:40:42.488Z,3.17
2022-10-06T20:43:12.289Z,3.80
2022-10-06T20:45:42.098Z,3.57
2022-10-06T20:48:14.245Z,2.96
2022-10-06T20:50:44.515Z,3.10
2022-10-06T20:53:14.762Z,3.27
2022-10-06T20:55:52.346Z,3.37
2022-10-06T20:58:22.100Z,2.92
2022-10-06T21:00:51.994Z,2.73
2022-10-06T21:03:22.099Z,2.80
2022-10-06T21:05:52.538Z,3.20
2022-10-06T21:08:23.033Z,2.53
2022-10-06T21:11:03.215Z,2.70
2022-10-06T21:13:32.713Z,2.90
2022-10-06T21:16:03.029Z,2.97
2022-10-06T21:18:33.662Z,2.67
2022-10-06T21:21:07.194Z,2.60
2022-10-06T21:23:42.207Z,2.63
2022-10-06T21:26:15.564Z,2.50
2022-10-06T21:28:45.843Z,3.17
2022-10-06T21:31:18.146Z,2.90
2022-10-06T21:33:50.253Z,3.27
2022-10-06T21:36:24.877Z,3.23
2022-10-06T21:38:59.373Z,2.70
2022-10-06T21:41:32.308Z,3.05
2022-10-06T21:44:04.668Z,3.57
2022-10-06T21:46:39.404Z,3.40
2022-10-06T21:49:11.877Z,2.93
2022-10-06T21:51:43.615Z,2.90
2022-10-06T21:54:15.167Z,3.15
2022-10-06T21:56:45.151Z,2.87
2022-10-06T21:59:15.058Z,3.37
2022-10-06T22:01:46.635Z,2.93
2022-10-06T22:04:17.092Z,3.20
2022-10-06T22:06:48.860Z,2.87
2022-10-06T22:09:21.230Z,2.77
2022-10-06T22:11:51.214Z,2.90
2022-10-06T22:14:21.069Z,3.47
2022-10-06T22:16:51.106Z,3.37
2022-10-06T22:19:21.216Z,2.90
2022-10-06T22:21:51.023Z,2.90
2022-10-06T22:24:22.498Z,3.40
2022-10-06T22:26:52.223Z,3.30
2022-10-06T22:29:22.328Z,3.65
2022-10-06T22:31:52.153Z,3.30
2022-10-06T22:34:21.888Z,3.63
2022-10-06T22:36:51.649Z,3.30
2022-10-06T22:39:21.373Z,3.07
2022-10-06T22:41:51.119Z,2.87
2022-10-06T22:44:20.552Z,3.27
2022-10-06T22:46:50.338Z,3.13
2022-10-06T22:49:19.926Z,3.20
2022-10-06T22:51:49.374Z,4.45
2022-10-06T22:54:22.102Z,3.15
2022-10-06T22:56:51.842Z,3.87
2022-10-06T22:59:21.576Z,3.47
2022-10-06T23:01:53.260Z,3.17
2022-10-06T23:04:23.296Z,3.12
2022-10-06T23:06:52.796Z,3.00
2022-10-06T23:09:22.516Z,3.13
2022-10-06T23:11:52.349Z,3.30
2022-10-06T23:14:21.918Z,3.67
2022-10-06T23:16:51.751Z,3.63
2022-10-06T23:19:21.608Z,2.57
2022-10-06T23:21:51.401Z,3.20
2022-10-06T23:24:21.455Z,3.40
2022-10-06T23:26:51.193Z,3.27
2022-10-06T23:29:21.308Z,3.30
2022-10-06T23:31:51.210Z,3.50
2022-10-06T23:34:20.838Z,3.17
2022-10-06T23:36:50.575Z,3.47
2022-10-06T23:39:20.315Z,3.57
2022-10-06T23:41:50.414Z,3.47
2022-10-06T23:44:19.941Z,4.77
2022-10-06T23:46:49.754Z,3.40
2022-10-06T23:49:19.846Z,4.50
2022-10-06T23:51:49.607Z,3.80
2022-10-06T23:54:19.416Z,3.80
2022-10-06T23:56:50.505Z,3.60
2022-10-06T23:59:21.073Z,3.70
